createdAt,value
2023-02-27T00:01:51.684Z,66.50
2023-02-27T00:04:18.444Z,65.65
2023-02-27T00:06:45.084Z,65.29
2023-02-27T00:09:11.719Z,65.73
2023-02-27T00:11:38.337Z,66.63
2023-02-27T00:14:06.510Z,66.96
2023-02-27T00:16:33.173Z,66.09
2023-02-27T00:18:59.844Z,66.34
2023-02-27T00:21:27.523Z,65.80
2023-02-27T00:23:54.370Z,64.67
2023-02-27T00:26:21.064Z,65.04
2023-02-27T00:28:47.697Z,65.49
2023-02-27T00:31:14.691Z,65.09
2023-02-27T00:33:41.696Z,65.05
2023-02-27T00:36:08.425Z,64.28
2023-02-27T00:38:35.184Z,64.43
2023-02-27T00:41:01.979Z,64.76
2023-02-27T00:43:28.579Z,64.43
2023-02-27T00:45:55.222Z,64.32
2023-02-27T00:48:22.022Z,65.70
2023-02-27T00:50:49.933Z,65.41
2023-02-27T00:53:16.909Z,65.46
2023-02-27T00:55:43.679Z,65.49
2023-02-27T00:58:10.396Z,64.94
2023-02-27T01:00:37.195Z,64.80
2023-02-27T01:03:03.980Z,65.72
2023-02-27T01:05:30.839Z,64.69
2023-02-27T01:07:57.676Z,65.84
2023-02-27T01:10:24.398Z,66.11
2023-02-27T01:12:51.613Z,67.36
2023-02-27T01:15:18.486Z,66.73
2023-02-27T01:17:45.396Z,65.63
2023-02-27T01:20:12.889Z,66.26
2023-02-27T01:22:40.038Z,67.69
2023-02-27T01:25:07.556Z,66.81
2023-02-27T01:27:34.311Z,65.89
2023-02-27T01:30:01.175Z,65.17
2023-02-27T01:32:28.055Z,65.54
2023-02-27T01:34:54.724Z,66.82
2023-02-27T01:37:21.441Z,67.01
2023-02-27T01:39:48.135Z,66.11
2023-02-27T01:42:26.784Z,65.57
2023-02-27T01:45:19.117Z,65.10
2023-02-27T01:47:50.337Z,64.17
2023-02-27T01:50:19.108Z,64.52
2023-02-27T01:52:52.521Z,65.33
2023-02-27T01:55:20.274Z,66.79
2023-02-27T01:57:49.619Z,65.23
2023-02-27T02:00:17.338Z,64.66
2023-02-27T02:03:09.104Z,63.88
2023-02-27T02:05:35.804Z,65.74
2023-02-27T02:08:03.879Z,64.93
2023-02-27T02:10:32.471Z,64.71
2023-02-27T02:12:59.525Z,65.67
2023-02-27T02:15:36.691Z,65.36
2023-02-27T02:18:38.191Z,65.28
2023-02-27T02:21:50.195Z,63.65
2023-02-27T02:24:29.389Z,64.49
2023-02-27T02:27:11.178Z,64.08
2023-02-27T02:30:22.147Z,62.61
2023-02-27T02:33:19.061Z,62.12
2023-02-27T02:36:28.496Z,61.74
2023-02-27T02:39:25.510Z,63.63
2023-02-27T02:42:20.261Z,64.02
2023-02-27T02:45:05.693Z,62.01
2023-02-27T02:48:08.625Z,61.41
2023-02-27T02:51:01.435Z,62.66
2023-02-27T02:53:41.926Z,61.53
2023-02-27T02:56:43.345Z,62.44
2023-02-27T02:59:22.292Z,61.42
2023-02-27T03:02:06.598Z,63.14
2023-02-27T03:04:35.632Z,64.15
2023-02-27T03:07:17.058Z,63.44
2023-02-27T03:10:08.301Z,62.37
2023-02-27T03:12:40.355Z,62.57
2023-02-27T03:15:23.242Z,61.44
2023-02-27T03:18:15.080Z,60.77
2023-02-27T03:20:56.978Z,60.88
2023-02-27T03:23:29.789Z,61.21
2023-02-27T03:25:58.353Z,60.34
2023-02-27T03:28:30.090Z,61.75
2023-02-27T03:31:01.688Z,61.44
2023-02-27T03:33:34.385Z,61.99
2023-02-27T03:36:28.740Z,61.75
2023-02-27T03:39:08.781Z,60.91
2023-02-27T03:41:37.097Z,60.75
2023-02-27T03:44:03.816Z,60.80
2023-02-27T03:46:30.970Z,59.65
2023-02-27T03:48:57.760Z,60.94
2023-02-27T03:51:26.174Z,60.38
2023-02-27T03:54:30.429Z,61.48
2023-02-27T03:57:02.080Z,60.69
2023-02-27T03:59:31.129Z,58.84
2023-02-27T04:02:00.696Z,59.89
2023-02-27T04:04:29.258Z,60.32
2023-02-27T04:07:02.282Z,61.28
2023-02-27T04:09:55.467Z,62.00
2023-02-27T04:12:37.317Z,60.04
2023-02-27T04:15:17.839Z,60.43
2023-02-27T04:17:58.812Z,61.53
2023-02-27T04:20:34.562Z,59.74
2023-02-27T04:23:45.821Z,60.79
2023-02-27T04:26:15.070Z,60.25
2023-02-27T04:28:48.468Z,59.34
2023-02-27T04:31:31.336Z,60.20
2023-02-27T04:34:15.593Z,59.99
2023-02-27T04:36:53.013Z,59.77
2023-02-27T04:39:52.191Z,59.14
2023-02-27T04:42:28.819Z,58.94
2023-02-27T04:45:02.854Z,58.81
2023-02-27T04:47:44.280Z,60.52
2023-02-27T04:50:34.019Z,59.64
2023-02-27T04:53:09.372Z,59.42
2023-02-27T04:55:50.777Z,59.34
2023-02-27T04:58:50.732Z,59.39
2023-02-27T05:01:26.700Z,60.02
2023-02-27T05:03:54.882Z,59.54
2023-02-27T05:06:27.443Z,59.02
2023-02-27T05:09:06.684Z,58.22
2023-02-27T05:11:41.503Z,58.98
2023-02-27T05:14:42.883Z,59.61
2023-02-27T05:17:26.264Z,58.60
2023-02-27T05:19:52.956Z,59.45
2023-02-27T05:22:47.598Z,58.88
2023-02-27T05:25:28.932Z,58.56
2023-02-27T05:28:12.845Z,59.50
2023-02-27T05:31:05.471Z,59.61
2023-02-27T05:34:03.121Z,58.73
2023-02-27T05:36:46.004Z,58.74
2023-02-27T05:39:16.054Z,59.59
2023-02-27T05:41:53.115Z,57.70
2023-02-27T05:44:34.997Z,58.01
2023-02-27T05:47:14.042Z,59.35
2023-02-27T05:50:10.377Z,59.47
2023-02-27T05:52:38.620Z,58.93
2023-02-27T05:55:23.394Z,59.65
2023-02-27T05:58:27.172Z,59.19
2023-02-27T06:01:07.034Z,59.57
2023-02-27T06:03:36.113Z,59.68
2023-02-27T06:06:06.677Z,59.19
2023-02-27T06:08:33.522Z,59.83
2023-02-27T06:11:00.140Z,58.99
2023-02-27T06:13:26.776Z,60.54
2023-02-27T06:15:53.558Z,59.91
2023-02-27T06:18:20.281Z,59.66
2023-02-27T06:20:47.760Z,58.84
2023-02-27T06:23:14.508Z,59.22
2023-02-27T06:25:41.444Z,59.91
2023-02-27T06:28:08.335Z,60.38
2023-02-27T06:30:36.161Z,59.94
2023-02-27T06:33:03.465Z,59.79
2023-02-27T06:35:30.721Z,60.38
2023-02-27T06:37:57.950Z,59.11
2023-02-27T06:40:25.428Z,59.79
2023-02-27T06:42:52.150Z,59.59
2023-02-27T06:45:18.904Z,58.56
2023-02-27T06:47:45.614Z,58.28
2023-02-27T06:50:13.794Z,58.87
2023-02-27T06:52:40.884Z,59.46
2023-02-27T06:55:09.064Z,58.86
2023-02-27T06:57:35.788Z,58.08
2023-02-27T07:00:04.332Z,57.68
2023-02-27T07:02:31.348Z,56.93
2023-02-27T07:04:58.140Z,57.82
2023-02-27T07:07:35.354Z,59.02
2023-02-27T07:10:06.505Z,57.83
2023-02-27T07:12:33.138Z,58.92
2023-02-27T07:14:59.775Z,56.96
2023-02-27T07:17:26.452Z,55.83
2023-02-27T07:19:55.787Z,57.59
2023-02-27T07:22:22.419Z,56.06
2023-02-27T07:24:49.315Z,57.69
2023-02-27T07:27:15.997Z,55.53
2023-02-27T07:29:42.637Z,54.41
2023-02-27T07:32:09.387Z,54.26
2023-02-27T07:34:36.225Z,55.39
2023-02-27T07:37:03.057Z,54.95
2023-02-27T07:39:29.729Z,55.25
2023-02-27T07:41:56.463Z,54.46
2023-02-27T07:44:23.071Z,54.10
2023-02-27T07:46:49.853Z,53.86
2023-02-27T07:49:16.551Z,54.99
2023-02-27T07:51:43.145Z,53.88
2023-02-27T07:54:09.805Z,53.81
2023-02-27T07:56:36.493Z,53.20
2023-02-27T07:59:03.151Z,53.90
2023-02-27T08:01:29.835Z,52.07
2023-02-27T08:03:57.311Z,54.79
2023-02-27T08:06:24.188Z,53.30
2023-02-27T08:08:51.564Z,53.61
2023-02-27T08:11:18.603Z,52.01
2023-02-27T08:14:01.736Z,51.88
2023-02-27T08:16:30.469Z,51.43
2023-02-27T08:18:58.164Z,53.06
2023-02-27T08:21:25.569Z,51.85
2023-02-27T08:23:52.440Z,50.75
2023-02-27T08:26:19.074Z,52.44
2023-02-27T08:28:45.958Z,51.29
2023-02-27T08:31:12.829Z,51.47
2023-02-27T08:33:40.252Z,50.68
2023-02-27T08:36:07.385Z,48.41
2023-02-27T08:38:34.064Z,51.05
2023-02-27T08:41:00.734Z,47.22
2023-02-27T08:43:27.375Z,49.13
2023-02-27T08:45:54.131Z,49.06
2023-02-27T08:48:20.887Z,49.42
2023-02-27T08:50:47.767Z,49.59
2023-02-27T08:53:14.631Z,49.15
2023-02-27T08:55:41.910Z,49.86
2023-02-27T08:58:09.592Z,50.65
2023-02-27T09:00:36.306Z,49.95
2023-02-27T09:03:03.176Z,48.89
2023-02-27T09:05:29.861Z,49.37
2023-02-27T09:07:56.474Z,50.00
2023-02-27T09:10:23.288Z,49.25
2023-02-27T09:12:49.906Z,49.91
2023-02-27T09:15:16.816Z,49.48
2023-02-27T09:17:43.729Z,49.47
2023-02-27T09:20:11.616Z,48.75
2023-02-27T09:22:39.175Z,48.51
2023-02-27T09:25:09.185Z,48.16
2023-02-27T09:27:35.935Z,46.34
2023-02-27T09:30:02.609Z,49.54
2023-02-27T09:32:29.384Z,50.77
2023-02-27T09:34:56.124Z,47.28
2023-02-27T09:37:22.746Z,46.13
2023-02-27T09:39:49.408Z,47.83
2023-02-27T09:42:22.908Z,48.06
2023-02-27T09:44:52.835Z,47.56
2023-02-27T09:47:25.829Z,49.75
2023-02-27T09:50:27.408Z,47.40
2023-02-27T09:52:54.465Z,48.33
2023-02-27T09:55:23.014Z,46.68
2023-02-27T09:57:54.466Z,47.19
2023-02-27T10:00:45.292Z,46.63
2023-02-27T10:03:30.532Z,45.58
2023-02-27T10:06:09.967Z,47.12
2023-02-27T10:08:48.969Z,47.42
2023-02-27T10:11:24.604Z,47.58
2023-02-27T10:14:07.103Z,46.82
2023-02-27T10:16:34.851Z,46.90
2023-02-27T10:19:05.724Z,47.07
2023-02-27T10:21:41.564Z,46.85
2023-02-27T10:24:21.828Z,46.52
2023-02-27T10:26:49.481Z,47.26
2023-02-27T10:29:21.292Z,46.65
2023-02-27T10:31:54.464Z,44.94
2023-02-27T10:34:23.386Z,43.93
2023-02-27T10:36:50.037Z,44.63
2023-02-27T10:39:18.876Z,44.08
2023-02-27T10:41:46.968Z,44.89
2023-02-27T10:44:17.484Z,43.15
2023-02-27T10:46:45.098Z,42.33
2023-02-27T10:49:19.158Z,45.15
2023-02-27T10:51:48.009Z,42.85
2023-02-27T10:54:20.555Z,43.46
2023-02-27T10:56:58.738Z,44.52
2023-02-27T10:59:34.394Z,44.60
2023-02-27T11:02:04.723Z,42.77
2023-02-27T11:04:38.745Z,42.81
2023-02-27T11:07:10.041Z,43.47
2023-02-27T11:09:37.772Z,43.09
2023-02-27T11:12:32.434Z,43.25
2023-02-27T11:15:01.782Z,43.08
2023-02-27T11:17:32.161Z,43.93
2023-02-27T11:20:01.051Z,44.72
2023-02-27T11:22:30.905Z,42.16
2023-02-27T11:25:22.509Z,41.72
2023-02-27T11:27:49.917Z,44.54
2023-02-27T11:30:30.409Z,41.39
2023-02-27T11:33:00.215Z,39.10
2023-02-27T11:35:39.666Z,43.80
2023-02-27T11:38:17.629Z,41.33
2023-02-27T11:41:13.678Z,42.58
2023-02-27T11:43:52.585Z,41.94
2023-02-27T11:46:46.495Z,40.84
2023-02-27T11:49:17.776Z,41.96
2023-02-27T11:52:09.426Z,43.80
2023-02-27T11:54:39.064Z,42.56
2023-02-27T11:57:25.637Z,42.01
2023-02-27T11:59:57.113Z,42.49
2023-02-27T12:02:39.431Z,39.52
2023-02-27T12:05:12.116Z,42.55
2023-02-27T12:07:46.528Z,42.92
2023-02-27T12:10:20.520Z,43.43
2023-02-27T12:12:52.221Z,44.63
2023-02-27T12:15:42.226Z,43.60
2023-02-27T12:18:28.551Z,45.67
2023-02-27T12:21:10.870Z,44.93
2023-02-27T12:23:45.121Z,44.35
2023-02-27T12:26:33.192Z,42.92
2023-02-27T12:28:59.974Z,45.49
2023-02-27T12:31:35.601Z,43.02
2023-02-27T12:34:05.419Z,41.07
2023-02-27T12:36:32.146Z,43.41
2023-02-27T12:38:58.953Z,43.66
2023-02-27T12:42:12.348Z,42.54
2023-02-27T12:45:07.054Z,43.32
2023-02-27T12:48:10.672Z,44.00
2023-02-27T12:51:17.002Z,43.52
2023-02-27T12:53:50.851Z,43.17
2023-02-27T12:56:23.797Z,41.51
2023-02-27T12:59:03.159Z,42.36
2023-02-27T13:01:54.452Z,41.80
2023-02-27T13:04:44.329Z,42.48
2023-02-27T13:07:38.122Z,42.61
2023-02-27T13:10:19.516Z,40.46
2023-02-27T13:13:22.949Z,42.01
2023-02-27T13:15:54.790Z,42.26
2023-02-27T13:18:41.744Z,41.56
2023-02-27T13:21:32.690Z,43.41
2023-02-27T13:24:25.083Z,43.56
2023-02-27T13:27:17.856Z,43.56
2023-02-27T13:30:10.387Z,43.15
2023-02-27T13:33:04.845Z,43.97
2023-02-27T13:35:56.489Z,43.35
2023-02-27T13:38:48.795Z,42.89
2023-02-27T13:41:21.587Z,43.83
2023-02-27T13:43:52.731Z,44.59
2023-02-27T13:46:26.506Z,44.82
2023-02-27T13:48:54.635Z,43.94
2023-02-27T13:51:36.449Z,42.32
2023-02-27T13:54:14.986Z,42.65
2023-02-27T13:56:46.109Z,42.58
2023-02-27T13:59:28.971Z,44.35
2023-02-27T14:01:58.356Z,43.41
2023-02-27T14:04:28.137Z,45.26
2023-02-27T14:07:07.508Z,42.75
2023-02-27T14:09:39.086Z,43.49
2023-02-27T14:12:19.204Z,44.22
2023-02-27T14:14:49.488Z,44.09
2023-02-27T14:17:35.028Z,44.07
2023-02-27T14:20:24.961Z,44.00
2023-02-27T14:23:23.576Z,44.46
2023-02-27T14:25:50.328Z,42.52
2023-02-27T14:28:55.411Z,42.28
2023-02-27T14:31:32.158Z,42.13
2023-02-27T14:34:01.073Z,39.62
2023-02-27T14:36:32.117Z,42.45
2023-02-27T14:39:00.901Z,43.05
2023-02-27T14:41:45.345Z,41.17
2023-02-27T14:44:25.147Z,43.62
2023-02-27T14:46:55.416Z,41.42
2023-02-27T14:49:24.822Z,40.54
2023-02-27T14:51:52.234Z,40.88
2023-02-27T14:54:26.575Z,41.06
2023-02-27T14:57:05.427Z,40.93
2023-02-27T14:59:53.755Z,39.80
2023-02-27T15:02:27.328Z,40.14
2023-02-27T15:05:12.129Z,41.04
2023-02-27T15:07:39.286Z,41.31
2023-02-27T15:10:09.397Z,38.94
2023-02-27T15:12:39.986Z,39.33
2023-02-27T15:15:08.500Z,41.75
2023-02-27T15:17:41.575Z,40.95
2023-02-27T15:20:28.180Z,39.23
2023-02-27T15:22:54.834Z,39.88
2023-02-27T15:25:34.546Z,41.75
2023-02-27T15:28:18.034Z,39.64
2023-02-27T15:30:50.712Z,41.63
2023-02-27T15:33:18.579Z,41.29
2023-02-27T15:35:46.373Z,41.55
2023-02-27T15:38:29.364Z,42.31
2023-02-27T15:40:58.159Z,42.12
2023-02-27T15:43:27.345Z,42.81
2023-02-27T15:45:55.137Z,41.58
2023-02-27T15:48:22.695Z,41.17
2023-02-27T15:50:53.971Z,42.87
2023-02-27T15:53:23.526Z,42.00
2023-02-27T15:55:53.839Z,44.08
2023-02-27T15:58:30.240Z,43.09
2023-02-27T16:01:07.250Z,43.51
2023-02-27T16:03:38.789Z,44.68
2023-02-27T16:06:18.979Z,44.99
2023-02-27T16:08:53.002Z,45.00
2023-02-27T16:11:25.591Z,45.52
2023-02-27T16:13:53.252Z,46.28
2023-02-27T16:16:19.876Z,46.30
2023-02-27T16:18:52.859Z,46.68
2023-02-27T16:21:22.522Z,45.65
2023-02-27T16:23:49.396Z,46.58
2023-02-27T16:26:28.313Z,46.03
2023-02-27T16:28:56.223Z,46.55
2023-02-27T16:31:24.451Z,46.72
2023-02-27T16:33:51.669Z,46.75
2023-02-27T16:36:25.297Z,47.23
2023-02-27T16:38:52.029Z,46.41
2023-02-27T16:41:23.393Z,46.87
2023-02-27T16:43:53.149Z,46.73
2023-02-27T16:46:21.746Z,48.09
2023-02-27T16:48:54.103Z,47.51
2023-02-27T16:51:23.834Z,48.34
2023-02-27T16:53:55.218Z,47.28
2023-02-27T16:56:37.293Z,48.03
2023-02-27T16:59:04.988Z,47.10
2023-02-27T17:01:33.953Z,47.61
2023-02-27T17:04:00.993Z,47.23
2023-02-27T17:06:28.222Z,47.70
2023-02-27T17:08:55.297Z,48.18
2023-02-27T17:11:22.230Z,46.64
2023-02-27T17:13:48.915Z,48.05
2023-02-27T17:16:16.394Z,47.98
2023-02-27T17:18:43.119Z,48.04
2023-02-27T17:21:09.762Z,47.97
2023-02-27T17:23:36.414Z,48.91
2023-02-27T17:26:03.321Z,48.39
2023-02-27T17:28:29.930Z,49.11
2023-02-27T17:30:56.694Z,48.87
2023-02-27T17:33:23.396Z,49.79
2023-02-27T17:35:50.417Z,49.52
2023-02-27T17:38:17.061Z,50.33
2023-02-27T17:40:43.695Z,49.57
2023-02-27T17:43:10.373Z,49.52
2023-02-27T17:45:38.458Z,49.65
2023-02-27T17:48:05.539Z,49.79
2023-02-27T17:50:32.177Z,49.37
2023-02-27T17:52:58.780Z,50.94
2023-02-27T17:55:25.404Z,50.33
2023-02-27T17:57:52.044Z,50.68
2023-02-27T18:00:19.030Z,49.41
2023-02-27T18:02:45.893Z,53.09
2023-02-27T18:05:12.671Z,51.51
2023-02-27T18:07:40.016Z,50.88
2023-02-27T18:10:08.587Z,52.36
2023-02-27T18:12:36.981Z,52.91
2023-02-27T18:15:04.313Z,53.40
2023-02-27T18:17:30.949Z,53.28
2023-02-27T18:19:57.665Z,52.35
2023-02-27T18:22:24.513Z,51.10
2023-02-27T18:24:55.143Z,52.08
2023-02-27T18:27:22.267Z,52.59
2023-02-27T18:29:49.755Z,52.87
2023-02-27T18:32:17.107Z,52.98
2023-02-27T18:34:44.099Z,52.71
2023-02-27T18:37:10.900Z,53.02
2023-02-27T18:39:37.653Z,52.67
2023-02-27T18:42:06.468Z,53.10
2023-02-27T18:44:33.471Z,54.02
2023-02-27T18:47:00.098Z,52.74
2023-02-27T18:49:29.587Z,53.98
2023-02-27T18:51:56.630Z,53.47
2023-02-27T18:54:23.364Z,52.01
2023-02-27T18:56:51.033Z,53.82
2023-02-27T18:59:17.618Z,55.07
2023-02-27T19:01:44.451Z,53.52
2023-02-27T19:04:11.135Z,53.90
2023-02-27T19:06:40.544Z,52.18
2023-02-27T19:09:08.874Z,53.13
2023-02-27T19:11:35.814Z,53.10
2023-02-27T19:14:05.743Z,53.37
2023-02-27T19:16:33.348Z,52.76
2023-02-27T19:19:01.623Z,51.68
2023-02-27T19:21:28.623Z,54.60
2023-02-27T19:23:55.673Z,54.18
2023-02-27T19:26:23.147Z,54.04
2023-02-27T19:28:54.206Z,54.08
2023-02-27T19:31:23.341Z,54.35
2023-02-27T19:33:50.277Z,54.38
2023-02-27T19:36:18.830Z,54.21
2023-02-27T19:38:45.462Z,54.36
2023-02-27T19:41:14.089Z,54.82
2023-02-27T19:43:41.156Z,54.48
2023-02-27T19:46:14.240Z,54.11
2023-02-27T19:48:41.209Z,54.79
2023-02-27T19:51:10.300Z,52.55
2023-02-27T19:53:38.724Z,54.24
2023-02-27T19:56:12.148Z,55.11
2023-02-27T19:58:38.866Z,54.35
2023-02-27T20:01:06.134Z,55.64
2023-02-27T20:03:33.441Z,55.63
2023-02-27T20:06:00.549Z,55.98
2023-02-27T20:08:27.470Z,54.41
2023-02-27T20:10:55.971Z,55.73
2023-02-27T20:13:22.746Z,54.47
2023-02-27T20:16:01.062Z,54.18
2023-02-27T20:18:29.131Z,54.76
2023-02-27T20:21:09.931Z,54.71
2023-02-27T20:23:39.539Z,53.50
2023-02-27T20:26:18.327Z,53.60
2023-02-27T20:28:46.301Z,53.72
2023-02-27T20:31:15.658Z,54.57
2023-02-27T20:33:42.709Z,56.29
2023-02-27T20:36:11.263Z,55.30
2023-02-27T20:38:39.241Z,55.84
2023-02-27T20:41:10.175Z,55.93
2023-02-27T20:43:37.580Z,55.28
2023-02-27T20:46:05.987Z,55.73
2023-02-27T20:48:33.399Z,54.55
2023-02-27T20:51:11.985Z,54.19
2023-02-27T20:53:40.817Z,53.57
2023-02-27T20:56:09.236Z,54.52
2023-02-27T20:58:36.309Z,54.21
2023-02-27T21:01:08.080Z,55.04
2023-02-27T21:03:38.564Z,54.64
2023-02-27T21:06:07.850Z,53.47
2023-02-27T21:08:40.879Z,54.78
2023-02-27T21:11:17.119Z,55.52
2023-02-27T21:13:43.890Z,54.97
2023-02-27T21:16:11.699Z,56.45
2023-02-27T21:18:38.901Z,56.39
2023-02-27T21:21:08.130Z,56.01
2023-02-27T21:23:35.806Z,56.53
2023-02-27T21:26:04.841Z,56.55
2023-02-27T21:28:31.488Z,55.98
2023-02-27T21:30:58.099Z,56.95
2023-02-27T21:33:24.831Z,56.49
2023-02-27T21:35:51.481Z,55.57
2023-02-27T21:38:18.156Z,56.98
2023-02-27T21:40:44.863Z,56.59
2023-02-27T21:43:11.729Z,56.89
2023-02-27T21:45:38.336Z,57.06
2023-02-27T21:48:05.249Z,56.80
2023-02-27T21:50:32.047Z,57.58
2023-02-27T21:52:58.711Z,57.71
2023-02-27T21:55:25.311Z,58.11
2023-02-27T21:57:52.003Z,58.79
2023-02-27T22:00:19.353Z,58.01
2023-02-27T22:02:46.184Z,57.68
2023-02-27T22:05:12.841Z,58.67
2023-02-27T22:07:39.656Z,58.42
2023-02-27T22:10:06.546Z,58.09
2023-02-27T22:12:33.257Z,59.03
2023-02-27T22:14:59.932Z,59.58
2023-02-27T22:17:26.794Z,58.66
2023-02-27T22:19:53.586Z,59.45
2023-02-27T22:22:20.168Z,59.91
2023-02-27T22:24:46.917Z,59.65
2023-02-27T22:27:13.533Z,59.63
2023-02-27T22:29:42.207Z,59.55
2023-02-27T22:32:09.545Z,60.31
2023-02-27T22:34:36.210Z,59.57
2023-02-27T22:37:02.862Z,59.79
2023-02-27T22:39:29.540Z,59.53
2023-02-27T22:41:56.951Z,59.82
2023-02-27T22:44:23.955Z,58.67
2023-02-27T22:46:50.888Z,58.51
2023-02-27T22:49:20.963Z,59.00
2023-02-27T22:51:50.339Z,60.60
2023-02-27T22:54:19.357Z,61.46
2023-02-27T22:56:49.493Z,61.39
2023-02-27T22:59:16.170Z,60.29
2023-02-27T23:01:42.977Z,60.53
2023-02-27T23:04:11.287Z,60.16
2023-02-27T23:06:40.070Z,59.80
2023-02-27T23:09:09.280Z,59.79
2023-02-27T23:11:36.014Z,58.31
2023-02-27T23:14:02.663Z,57.69
2023-02-27T23:16:29.641Z,59.38
2023-02-27T23:18:58.411Z,59.90
2023-02-27T23:21:29.072Z,59.65
2023-02-27T23:23:56.132Z,60.88
2023-02-27T23:26:23.258Z,61.26
2023-02-27T23:28:50.114Z,60.84
2023-02-27T23:31:16.794Z,60.83
2023-02-27T23:33:43.758Z,61.46
2023-02-27T23:36:10.434Z,61.24
2023-02-27T23:38:37.220Z,60.74
2023-02-27T23:41:08.616Z,61.73
2023-02-27T23:43:35.995Z,60.95
2023-02-27T23:46:10.680Z,60.86
2023-02-27T23:48:37.679Z,60.65
2023-02-27T23:51:06.452Z,60.75
2023-02-27T23:53:34.338Z,60.17
2023-02-27T23:56:01.090Z,60.57
2023-02-27T23:58:27.802Z,60.74
